sensor_id;sensor_type;location;lat;lon;timestamp;pressure;altitude;pressure_sealevel;temperature;humidity
52441;BME280;39611;46.062;8.950;2023-04-15T00:00:56;95282.59;;;10.60;30.31
52441;BME280;39611;46.062;8.950;2023-04-15T00:03:24;95279.28;;;10.54;30.83
52441;BME280;39611;46.062;8.950;2023-04-15T00:05:50;95275.44;;;10.60;31.52
52441;BME280;39611;46.062;8.950;2023-04-15T00:08:17;95278.69;;;10.57;32.44
52441;BME280;39611;46.062;8.950;2023-04-15T00:10:43;95275.75;;;10.59;32.10
52441;BME280;39611;46.062;8.950;2023-04-15T00:13:11;95263.44;;;10.54;32.54
52441;BME280;39611;46.062;8.950;2023-04-15T00:15:38;95257.91;;;10.42;30.95
52441;BME280;39611;46.062;8.950;2023-04-15T00:18:04;95255.75;;;10.44;32.18
52441;BME280;39611;46.062;8.950;2023-04-15T00:20:33;95259.94;;;10.45;32.91
52441;BME280;39611;46.062;8.950;2023-04-15T00:23:00;95254.97;;;10.43;33.14
52441;BME280;39611;46.062;8.950;2023-04-15T00:25:27;95248.81;;;10.34;32.27
52441;BME280;39611;46.062;8.950;2023-04-15T00:27:54;95255.00;;;10.30;32.73
52441;BME280;39611;46.062;8.950;2023-04-15T00:30:20;95248.06;;;10.34;33.18
52441;BME280;39611;46.062;8.950;2023-04-15T00:32:47;95253.72;;;10.27;32.51
52441;BME280;39611;46.062;8.950;2023-04-15T00:35:14;95251.19;;;10.22;34.18
52441;BME280;39611;46.062;8.950;2023-04-15T00:37:41;95257.19;;;10.27;33.45
52441;BME280;39611;46.062;8.950;2023-04-15T00:40:12;95249.03;;;10.24;32.39
52441;BME280;39611;46.062;8.950;2023-04-15T00:42:38;95254.88;;;10.35;32.84
52441;BME280;39611;46.062;8.950;2023-04-15T00:45:05;95239.84;;;10.35;30.07
52441;BME280;39611;46.062;8.950;2023-04-15T00:47:32;95235.81;;;10.24;30.39
52441;BME280;39611;46.062;8.950;2023-04-15T00:50:00;95247.88;;;10.30;30.32
52441;BME280;39611;46.062;8.950;2023-04-15T00:52:27;95244.16;;;10.31;30.69
52441;BME280;39611;46.062;8.950;2023-04-15T00:54:54;95236.53;;;10.16;31.77
52441;BME280;39611;46.062;8.950;2023-04-15T00:57:21;95244.53;;;10.24;31.46
52441;BME280;39611;46.062;8.950;2023-04-15T00:59:48;95237.81;;;10.18;32.77
52441;BME280;39611;46.062;8.950;2023-04-15T01:02:14;95237.69;;;10.23;31.42
52441;BME280;39611;46.062;8.950;2023-04-15T01:04:41;95220.63;;;10.52;28.14
52441;BME280;39611;46.062;8.950;2023-04-15T01:07:08;95233.25;;;10.55;27.73
52441;BME280;39611;46.062;8.950;2023-04-15T01:09:35;95226.56;;;10.58;28.86
52441;BME280;39611;46.062;8.950;2023-04-15T01:12:01;95234.34;;;10.54;28.73
52441;BME280;39611;46.062;8.950;2023-04-15T01:14:29;95219.91;;;10.60;27.05
52441;BME280;39611;46.062;8.950;2023-04-15T01:16:55;95225.53;;;10.67;26.82
52441;BME280;39611;46.062;8.950;2023-04-15T01:19:22;95227.97;;;10.55;28.46
52441;BME280;39611;46.062;8.950;2023-04-15T01:21:49;95219.97;;;10.69;27.44
52441;BME280;39611;46.062;8.950;2023-04-15T01:24:17;95226.16;;;10.64;26.98
52441;BME280;39611;46.062;8.950;2023-04-15T01:26:44;95228.97;;;10.68;27.25
52441;BME280;39611;46.062;8.950;2023-04-15T01:29:10;95227.84;;;10.60;27.67
52441;BME280;39611;46.062;8.950;2023-04-15T01:31:36;95228.94;;;10.59;27.36
52441;BME280;39611;46.062;8.950;2023-04-15T01:34:03;95226.78;;;10.61;27.47
52441;BME280;39611;46.062;8.950;2023-04-15T01:36:30;95221.47;;;10.61;27.20
52441;BME280;39611;46.062;8.950;2023-04-15T01:38:57;95219.13;;;10.60;27.08
52441;BME280;39611;46.062;8.950;2023-04-15T01:41:26;95219.91;;;10.60;27.62
52441;BME280;39611;46.062;8.950;2023-04-15T01:43:53;95218.34;;;10.59;26.82
52441;BME280;39611;46.062;8.950;2023-04-15T01:46:21;95222.41;;;10.65;27.26
52441;BME280;39611;46.062;8.950;2023-04-15T01:48:48;95216.66;;;10.63;27.71
52441;BME280;39611;46.062;8.950;2023-04-15T01:51:14;95217.38;;;10.55;27.49
52441;BME280;39611;46.062;8.950;2023-04-15T01:53:41;95214.63;;;10.60;26.72
52441;BME280;39611;46.062;8.950;2023-04-15T01:56:08;95223.00;;;10.54;26.74
52441;BME280;39611;46.062;8.950;2023-04-15T01:58:34;95218.16;;;10.56;27.37
52441;BME280;39611;46.062;8.950;2023-04-15T02:01:01;95215.84;;;10.54;27.33
52441;BME280;39611;46.062;8.950;2023-04-15T02:03:28;95213.47;;;10.53;28.08
52441;BME280;39611;46.062;8.950;2023-04-15T02:05:55;95221.13;;;10.54;28.58
52441;BME280;39611;46.062;8.950;2023-04-15T02:08:21;95225.16;;;10.52;29.35
52441;BME280;39611;46.062;8.950;2023-04-15T02:10:48;95222.47;;;10.43;29.26
52441;BME280;39611;46.062;8.950;2023-04-15T02:13:14;95229.44;;;10.39;28.74
52441;BME280;39611;46.062;8.950;2023-04-15T02:15:49;95228.81;;;10.42;29.20
52441;BME280;39611;46.062;8.950;2023-04-15T02:18:16;95220.00;;;10.46;31.22
52441;BME280;39611;46.062;8.950;2023-04-15T02:20:43;95225.09;;;10.43;32.06
52441;BME280;39611;46.062;8.950;2023-04-15T02:23:09;95224.97;;;10.25;32.41
52441;BME280;39611;46.062;8.950;2023-04-15T02:25:36;95225.97;;;10.16;32.62
52441;BME280;39611;46.062;8.950;2023-04-15T02:28:04;95220.84;;;10.19;32.89
52441;BME280;39611;46.062;8.950;2023-04-15T02:30:32;95223.28;;;10.07;31.95
52441;BME280;39611;46.062;8.950;2023-04-15T02:32:59;95226.41;;;10.09;31.25
52441;BME280;39611;46.062;8.950;2023-04-15T02:35:26;95215.63;;;10.05;33.59
52441;BME280;39611;46.062;8.950;2023-04-15T02:37:52;95211.97;;;9.93;33.46
52441;BME280;39611;46.062;8.950;2023-04-15T02:40:19;95213.94;;;9.87;32.82
52441;BME280;39611;46.062;8.950;2023-04-15T02:42:45;95218.59;;;10.04;33.21
52441;BME280;39611;46.062;8.950;2023-04-15T02:45:12;95213.44;;;9.99;33.92
52441;BME280;39611;46.062;8.950;2023-04-15T02:47:39;95210.41;;;9.92;32.71
52441;BME280;39611;46.062;8.950;2023-04-15T02:50:10;95212.72;;;10.07;33.22
52441;BME280;39611;46.062;8.950;2023-04-15T02:52:41;95213.88;;;10.01;33.34
52441;BME280;39611;46.062;8.950;2023-04-15T02:55:08;95209.44;;;9.88;33.02
52441;BME280;39611;46.062;8.950;2023-04-15T02:57:35;95220.19;;;9.91;33.85
52441;BME280;39611;46.062;8.950;2023-04-15T03:00:06;95219.97;;;10.01;32.58
52441;BME280;39611;46.062;8.950;2023-04-15T03:02:36;95215.59;;;9.97;33.53
52441;BME280;39611;46.062;8.950;2023-04-15T03:05:04;95222.53;;;9.93;33.54
52441;BME280;39611;46.062;8.950;2023-04-15T03:07:31;95217.91;;;9.98;32.36
52441;BME280;39611;46.062;8.950;2023-04-15T03:09:57;95214.50;;;9.98;32.52
52441;BME280;39611;46.062;8.950;2023-04-15T03:12:24;95221.81;;;9.78;33.27
52441;BME280;39611;46.062;8.950;2023-04-15T03:14:50;95223.34;;;9.79;33.41
52441;BME280;39611;46.062;8.950;2023-04-15T03:17:16;95228.97;;;9.64;32.66
52441;BME280;39611;46.062;8.950;2023-04-15T03:19:43;95229.84;;;9.73;34.38
52441;BME280;39611;46.062;8.950;2023-04-15T03:22:09;95231.22;;;9.71;34.60
52441;BME280;39611;46.062;8.950;2023-04-15T03:24:36;95226.53;;;9.54;34.26
52441;BME280;39611;46.062;8.950;2023-04-15T03:27:02;95231.22;;;9.57;36.18
52441;BME280;39611;46.062;8.950;2023-04-15T03:29:28;95230.47;;;9.43;34.12
52441;BME280;39611;46.062;8.950;2023-04-15T03:31:55;95228.00;;;9.60;33.83
52441;BME280;39611;46.062;8.950;2023-04-15T03:34:22;95228.28;;;9.58;33.20
52441;BME280;39611;46.062;8.950;2023-04-15T03:36:48;95230.06;;;9.63;33.00
52441;BME280;39611;46.062;8.950;2023-04-15T03:39:14;95231.00;;;9.67;33.14
52441;BME280;39611;46.062;8.950;2023-04-15T03:41:41;95234.75;;;9.66;35.31
52441;BME280;39611;46.062;8.950;2023-04-15T03:44:08;95231.13;;;9.62;34.01
52441;BME280;39611;46.062;8.950;2023-04-15T03:46:34;95233.19;;;9.65;35.46
52441;BME280;39611;46.062;8.950;2023-04-15T03:49:01;95229.00;;;9.50;34.20
52441;BME280;39611;46.062;8.950;2023-04-15T03:51:28;95223.50;;;9.47;34.42
52441;BME280;39611;46.062;8.950;2023-04-15T03:53:54;95227.53;;;9.58;35.12
52441;BME280;39611;46.062;8.950;2023-04-15T03:56:21;95237.69;;;9.51;35.61
52441;BME280;39611;46.062;8.950;2023-04-15T03:58:47;95233.19;;;9.51;35.00
52441;BME280;39611;46.062;8.950;2023-04-15T04:01:14;95230.28;;;9.53;35.20
52441;BME280;39611;46.062;8.950;2023-04-15T04:03:41;95234.56;;;9.49;35.18
52441;BME280;39611;46.062;8.950;2023-04-15T04:06:07;95226.16;;;9.47;35.44
52441;BME280;39611;46.062;8.950;2023-04-15T04:08:34;95230.16;;;9.58;35.43
52441;BME280;39611;46.062;8.950;2023-04-15T04:11:00;95235.22;;;9.68;35.50
52441;BME280;39611;46.062;8.950;2023-04-15T04:13:27;95237.56;;;9.70;36.19
52441;BME280;39611;46.062;8.950;2023-04-15T04:15:53;95243.25;;;9.63;37.72
52441;BME280;39611;46.062;8.950;2023-04-15T04:18:20;95235.53;;;9.53;35.33
52441;BME280;39611;46.062;8.950;2023-04-15T04:20:46;95237.09;;;9.54;37.94
52441;BME280;39611;46.062;8.950;2023-04-15T04:23:13;95235.16;;;9.46;37.05
52441;BME280;39611;46.062;8.950;2023-04-15T04:25:39;95249.91;;;9.47;38.76
52441;BME280;39611;46.062;8.950;2023-04-15T04:28:05;95246.91;;;9.39;38.29
52441;BME280;39611;46.062;8.950;2023-04-15T04:30:32;95250.00;;;9.41;39.24
52441;BME280;39611;46.062;8.950;2023-04-15T04:32:58;95255.28;;;9.41;37.79
52441;BME280;39611;46.062;8.950;2023-04-15T04:35:26;95250.25;;;9.31;37.59
52441;BME280;39611;46.062;8.950;2023-04-15T04:37:52;95248.47;;;9.40;37.06
52441;BME280;39611;46.062;8.950;2023-04-15T04:40:19;95259.78;;;9.41;38.88
52441;BME280;39611;46.062;8.950;2023-04-15T04:42:46;95261.72;;;9.49;37.89
52441;BME280;39611;46.062;8.950;2023-04-15T04:45:12;95250.91;;;9.37;37.21
52441;BME280;39611;46.062;8.950;2023-04-15T04:47:39;95261.38;;;9.42;37.52
52441;BME280;39611;46.062;8.950;2023-04-15T04:50:06;95265.38;;;9.39;39.90
52441;BME280;39611;46.062;8.950;2023-04-15T04:52:33;95266.75;;;9.37;38.75
52441;BME280;39611;46.062;8.950;2023-04-15T04:54:59;95270.66;;;9.39;40.04
52441;BME280;39611;46.062;8.950;2023-04-15T04:57:26;95268.03;;;9.39;39.31
52441;BME280;39611;46.062;8.950;2023-04-15T04:59:52;95261.38;;;9.42;39.29
52441;BME280;39611;46.062;8.950;2023-04-15T05:02:19;95270.66;;;9.39;39.33
52441;BME280;39611;46.062;8.950;2023-04-15T05:04:45;95264.41;;;9.35;39.08
52441;BME280;39611;46.062;8.950;2023-04-15T05:07:12;95266.72;;;9.23;39.30
52441;BME280;39611;46.062;8.950;2023-04-15T05:09:38;95280.31;;;9.30;39.77
52441;BME280;39611;46.062;8.950;2023-04-15T05:12:05;95277.00;;;9.38;40.50
52441;BME280;39611;46.062;8.950;2023-04-15T05:14:33;95280.72;;;9.37;41.18
52441;BME280;39611;46.062;8.950;2023-04-15T05:16:59;95286.00;;;9.37;41.34
52441;BME280;39611;46.062;8.950;2023-04-15T05:19:25;95283.84;;;9.39;41.60
52441;BME280;39611;46.062;8.950;2023-04-15T05:21:52;95294.41;;;9.39;41.74
52441;BME280;39611;46.062;8.950;2023-04-15T05:24:18;95283.75;;;9.45;41.52
52441;BME280;39611;46.062;8.950;2023-04-15T05:26:45;95291.69;;;9.45;41.45
52441;BME280;39611;46.062;8.950;2023-04-15T05:29:11;95286.41;;;9.45;40.28
52441;BME280;39611;46.062;8.950;2023-04-15T05:31:37;95287.56;;;9.38;42.85
52441;BME280;39611;46.062;8.950;2023-04-15T05:34:04;95285.69;;;9.39;40.20
52441;BME280;39611;46.062;8.950;2023-04-15T05:36:32;95290.50;;;9.51;41.73
52441;BME280;39611;46.062;8.950;2023-04-15T05:38:58;95297.72;;;9.45;40.74
52441;BME280;39611;46.062;8.950;2023-04-15T05:41:25;95290.88;;;9.58;39.58
52441;BME280;39611;46.062;8.950;2023-04-15T05:43:51;95293.31;;;9.68;42.44
52441;BME280;39611;46.062;8.950;2023-04-15T05:46:18;95295.66;;;9.70;42.31
52441;BME280;39611;46.062;8.950;2023-04-15T05:48:44;95302.19;;;9.72;42.32
52441;BME280;39611;46.062;8.950;2023-04-15T05:51:11;95298.28;;;9.70;42.66
52441;BME280;39611;46.062;8.950;2023-04-15T05:53:37;95301.13;;;9.59;41.47
52441;BME280;39611;46.062;8.950;2023-04-15T05:56:04;95296.44;;;9.70;41.09
52441;BME280;39611;46.062;8.950;2023-04-15T05:58:30;95305.13;;;9.84;42.46
52441;BME280;39611;46.062;8.950;2023-04-15T06:00:57;95303.75;;;9.87;43.04
52441;BME280;39611;46.062;8.950;2023-04-15T06:03:24;95310.97;;;9.95;42.28
52441;BME280;39611;46.062;8.950;2023-04-15T06:05:50;95311.19;;;9.99;41.87
52441;BME280;39611;46.062;8.950;2023-04-15T06:08:17;95313.72;;;10.04;42.90
52441;BME280;39611;46.062;8.950;2023-04-15T06:10:44;95321.63;;;10.04;41.79
52441;BME280;39611;46.062;8.950;2023-04-15T06:13:11;95317.13;;;10.04;42.57
52441;BME280;39611;46.062;8.950;2023-04-15T06:15:38;95318.50;;;10.02;41.94
52441;BME280;39611;46.062;8.950;2023-04-15T06:18:04;95320.44;;;10.10;41.14
52441;BME280;39611;46.062;8.950;2023-04-15T06:20:31;95320.72;;;10.22;39.93
52441;BME280;39611;46.062;8.950;2023-04-15T06:22:57;95322.94;;;10.29;40.89
52441;BME280;39611;46.062;8.950;2023-04-15T06:25:24;95322.84;;;10.34;38.84
52441;BME280;39611;46.062;8.950;2023-04-15T06:27:50;95328.78;;;10.40;40.57
52441;BME280;39611;46.062;8.950;2023-04-15T06:30:17;95321.72;;;10.49;40.40
52441;BME280;39611;46.062;8.950;2023-04-15T06:32:43;95322.19;;;10.51;37.68
52441;BME280;39611;46.062;8.950;2023-04-15T06:35:10;95331.75;;;10.61;37.45
52441;BME280;39611;46.062;8.950;2023-04-15T06:37:36;95321.53;;;10.68;39.95
52441;BME280;39611;46.062;8.950;2023-04-15T06:40:03;95336.63;;;10.67;40.03
52441;BME280;39611;46.062;8.950;2023-04-15T06:42:30;95332.09;;;10.68;38.17
52441;BME280;39611;46.062;8.950;2023-04-15T06:44:57;95336.00;;;10.70;38.06
52441;BME280;39611;46.062;8.950;2023-04-15T06:47:23;95338.38;;;10.72;38.22
52441;BME280;39611;46.062;8.950;2023-04-15T06:49:50;95346.22;;;10.86;39.04
52441;BME280;39611;46.062;8.950;2023-04-15T06:52:17;95342.94;;;11.03;39.92
52441;BME280;39611;46.062;8.950;2023-04-15T06:54:43;95343.81;;;11.21;39.39
52441;BME280;39611;46.062;8.950;2023-04-15T06:57:09;95343.19;;;11.24;37.37
52441;BME280;39611;46.062;8.950;2023-04-15T06:59:36;95340.56;;;11.32;37.99
52441;BME280;39611;46.062;8.950;2023-04-15T07:02:02;95338.56;;;11.38;37.99
52441;BME280;39611;46.062;8.950;2023-04-15T07:04:29;95338.63;;;11.47;36.97
52441;BME280;39611;46.062;8.950;2023-04-15T07:06:56;95340.69;;;11.58;37.23
52441;BME280;39611;46.062;8.950;2023-04-15T07:09:23;95331.97;;;11.58;37.29
52441;BME280;39611;46.062;8.950;2023-04-15T07:11:50;95328.38;;;11.63;34.86
52441;BME280;39611;46.062;8.950;2023-04-15T07:14:16;95328.13;;;11.73;35.49
52441;BME280;39611;46.062;8.950;2023-04-15T07:16:43;95323.59;;;11.82;36.41
52441;BME280;39611;46.062;8.950;2023-04-15T07:19:09;95319.75;;;11.88;35.15
52441;BME280;39611;46.062;8.950;2023-04-15T07:21:36;95312.13;;;11.95;35.34
52441;BME280;39611;46.062;8.950;2023-04-15T07:24:06;95306.03;;;12.03;35.36
52441;BME280;39611;46.062;8.950;2023-04-15T07:26:32;95306.66;;;12.00;34.81
52441;BME280;39611;46.062;8.950;2023-04-15T07:28:59;95308.53;;;12.09;33.52
52441;BME280;39611;46.062;8.950;2023-04-15T07:31:26;95314.47;;;12.06;33.16
52441;BME280;39611;46.062;8.950;2023-04-15T07:33:52;95314.66;;;12.09;34.13
52441;BME280;39611;46.062;8.950;2023-04-15T07:36:19;95311.03;;;12.14;34.36
52441;BME280;39611;46.062;8.950;2023-04-15T07:38:45;95309.06;;;12.19;33.35
52441;BME280;39611;46.062;8.950;2023-04-15T07:41:12;95318.25;;;12.22;33.30
52441;BME280;39611;46.062;8.950;2023-04-15T07:43:39;95320.44;;;12.20;33.03
52441;BME280;39611;46.062;8.950;2023-04-15T07:46:05;95313.56;;;12.36;33.55
52441;BME280;39611;46.062;8.950;2023-04-15T07:48:32;95317.00;;;12.45;34.30
52441;BME280;39611;46.062;8.950;2023-04-15T07:51:00;95313.88;;;12.61;32.84
52441;BME280;39611;46.062;8.950;2023-04-15T07:53:27;95310.25;;;12.65;32.86
52441;BME280;39611;46.062;8.950;2023-04-15T07:55:54;95312.31;;;12.60;33.28
52441;BME280;39611;46.062;8.950;2023-04-15T07:58:21;95310.59;;;12.55;33.45
52441;BME280;39611;46.062;8.950;2023-04-15T08:00:47;95307.63;;;12.57;32.53
52441;BME280;39611;46.062;8.950;2023-04-15T08:03:14;95304.03;;;12.44;32.29
52441;BME280;39611;46.062;8.950;2023-04-15T08:05:41;95310.47;;;12.43;32.07
52441;BME280;39611;46.062;8.950;2023-04-15T08:08:07;95303.09;;;12.40;32.60
52441;BME280;39611;46.062;8.950;2023-04-15T08:10:34;95303.13;;;12.49;31.93
52441;BME280;39611;46.062;8.950;2023-04-15T08:13:00;95307.00;;;12.42;32.59
52441;BME280;39611;46.062;8.950;2023-04-15T08:15:27;95298.88;;;12.48;32.27
52441;BME280;39611;46.062;8.950;2023-04-15T08:17:53;95301.38;;;12.53;32.27
52441;BME280;39611;46.062;8.950;2023-04-15T08:20:20;95295.31;;;12.61;33.62
52441;BME280;39611;46.062;8.950;2023-04-15T08:22:46;95297.16;;;12.69;33.36
52441;BME280;39611;46.062;8.950;2023-04-15T08:25:17;95294.97;;;12.80;34.43
52441;BME280;39611;46.062;8.950;2023-04-15T08:27:45;95301.66;;;12.95;34.39
52441;BME280;39611;46.062;8.950;2023-04-15T08:30:12;95299.91;;;12.99;33.36
52441;BME280;39611;46.062;8.950;2023-04-15T08:32:42;95301.44;;;13.08;32.68
52441;BME280;39611;46.062;8.950;2023-04-15T08:35:11;95294.59;;;13.07;33.05
52441;BME280;39611;46.062;8.950;2023-04-15T08:37:38;95297.34;;;13.20;34.74
52441;BME280;39611;46.062;8.950;2023-04-15T08:40:05;95291.84;;;13.25;34.55
52441;BME280;39611;46.062;8.950;2023-04-15T08:42:43;95284.22;;;13.23;32.78
52441;BME280;39611;46.062;8.950;2023-04-15T08:45:13;95296.25;;;13.29;31.82
52441;BME280;39611;46.062;8.950;2023-04-15T08:47:41;95295.94;;;13.31;33.24
52441;BME280;39611;46.062;8.950;2023-04-15T08:50:09;95287.94;;;13.40;33.43
52441;BME280;39611;46.062;8.950;2023-04-15T08:52:37;95284.16;;;13.41;32.53
52441;BME280;39611;46.062;8.950;2023-04-15T08:55:07;95277.19;;;13.36;31.45
52441;BME280;39611;46.062;8.950;2023-04-15T08:57:35;95277.78;;;13.42;31.57
52441;BME280;39611;46.062;8.950;2023-04-15T09:00:02;95282.91;;;13.47;32.34
52441;BME280;39611;46.062;8.950;2023-04-15T09:02:31;95278.38;;;13.47;31.85
52441;BME280;39611;46.062;8.950;2023-04-15T09:04:57;95274.66;;;13.40;32.09
52441;BME280;39611;46.062;8.950;2023-04-15T09:07:24;95279.78;;;13.45;32.91
52441;BME280;39611;46.062;8.950;2023-04-15T09:09:50;95275.94;;;13.63;32.07
52441;BME280;39611;46.062;8.950;2023-04-15T09:12:17;95263.94;;;13.57;31.84
52441;BME280;39611;46.062;8.950;2023-04-15T09:14:44;95270.16;;;13.61;31.76
52441;BME280;39611;46.062;8.950;2023-04-15T09:17:12;95268.28;;;13.62;31.18
52441;BME280;39611;46.062;8.950;2023-04-15T09:19:39;95269.97;;;13.66;31.14
52441;BME280;39611;46.062;8.950;2023-04-15T09:22:05;95266.25;;;13.67;33.28
52441;BME280;39611;46.062;8.950;2023-04-15T09:24:37;95264.47;;;13.71;31.71
52441;BME280;39611;46.062;8.950;2023-04-15T09:27:04;95264.47;;;13.71;30.96
52441;BME280;39611;46.062;8.950;2023-04-15T09:29:31;95262.28;;;13.73;30.99
52441;BME280;39611;46.062;8.950;2023-04-15T09:32:14;95250.63;;;13.87;31.15
52441;BME280;39611;46.062;8.950;2023-04-15T09:34:41;95247.78;;;13.92;30.58
52441;BME280;39611;46.062;8.950;2023-04-15T09:37:08;95249.47;;;13.96;29.61
52441;BME280;39611;46.062;8.950;2023-04-15T09:39:49;95247.00;;;13.91;29.86
52441;BME280;39611;46.062;8.950;2023-04-15T09:42:16;95247.13;;;13.95;31.05
52441;BME280;39611;46.062;8.950;2023-04-15T09:44:49;95248.63;;;14.05;30.43
52441;BME280;39611;46.062;8.950;2023-04-15T09:47:30;95244.94;;;13.97;29.63
52441;BME280;39611;46.062;8.950;2023-04-15T09:49:58;95237.25;;;13.95;30.15
52441;BME280;39611;46.062;8.950;2023-04-15T09:52:26;95244.53;;;14.07;30.60
52441;BME280;39611;46.062;8.950;2023-04-15T09:54:53;95240.06;;;14.20;30.63
52441;BME280;39611;46.062;8.950;2023-04-15T09:57:21;95235.31;;;14.26;30.14
52441;BME280;39611;46.062;8.950;2023-04-15T09:59:50;95236.34;;;14.33;29.88
52441;BME280;39611;46.062;8.950;2023-04-15T10:02:18;95244.41;;;14.25;28.81
52441;BME280;39611;46.062;8.950;2023-04-15T10:04:47;95238.22;;;14.33;28.88
52441;BME280;39611;46.062;8.950;2023-04-15T10:07:14;95235.16;;;14.43;29.26
52441;BME280;39611;46.062;8.950;2023-04-15T10:09:41;95232.81;;;14.41;30.51
52441;BME280;39611;46.062;8.950;2023-04-15T10:12:11;95225.41;;;14.47;30.02
52441;BME280;39611;46.062;8.950;2023-04-15T10:14:39;95222.31;;;14.45;30.38
52441;BME280;39611;46.062;8.950;2023-04-15T10:17:06;95221.78;;;14.52;30.65
52441;BME280;39611;46.062;8.950;2023-04-15T10:19:36;95217.88;;;14.49;30.00
52441;BME280;39611;46.062;8.950;2023-04-15T10:22:03;95213.22;;;14.46;30.08
52441;BME280;39611;46.062;8.950;2023-04-15T10:24:30;95212.75;;;14.53;30.62
52441;BME280;39611;46.062;8.950;2023-04-15T10:26:58;95218.16;;;14.56;32.50
52441;BME280;39611;46.062;8.950;2023-04-15T10:29:25;95212.88;;;14.69;34.72
52441;BME280;39611;46.062;8.950;2023-04-15T10:31:54;95211.25;;;14.76;34.29
52441;BME280;39611;46.062;8.950;2023-04-15T10:34:23;95213.44;;;14.74;33.17
52441;BME280;39611;46.062;8.950;2023-04-15T10:36:50;95211.34;;;14.80;33.23
52441;BME280;39611;46.062;8.950;2023-04-15T10:42:09;95207.56;;;14.81;32.95
52441;BME280;39611;46.062;8.950;2023-04-15T10:44:37;95203.81;;;14.82;32.67
52441;BME280;39611;46.062;8.950;2023-04-15T10:47:09;95201.19;;;14.94;32.11
52441;BME280;39611;46.062;8.950;2023-04-15T10:49:46;95187.97;;;15.10;36.08
52441;BME280;39611;46.062;8.950;2023-04-15T10:52:14;95188.09;;;15.26;35.21
52441;BME280;39611;46.062;8.950;2023-04-15T10:54:41;95185.53;;;15.29;33.00
52441;BME280;39611;46.062;8.950;2023-04-15T10:57:13;95181.97;;;15.38;32.37
52441;BME280;39611;46.062;8.950;2023-04-15T11:02:47;95184.75;;;15.29;31.54
52441;BME280;39611;46.062;8.950;2023-04-15T11:05:17;95183.41;;;15.35;32.41
52441;BME280;39611;46.062;8.950;2023-04-15T11:07:56;95179.75;;;15.40;31.90
52441;BME280;39611;46.062;8.950;2023-04-15T11:13:01;95171.50;;;15.57;31.83
52441;BME280;39611;46.062;8.950;2023-04-15T11:15:41;95171.16;;;15.59;30.79
52441;BME280;39611;46.062;8.950;2023-04-15T11:20:35;95175.78;;;15.86;31.65
52441;BME280;39611;46.062;8.950;2023-04-15T11:23:03;95166.88;;;15.94;31.37
52441;BME280;39611;46.062;8.950;2023-04-15T11:25:41;95172.00;;;15.87;30.81
52441;BME280;39611;46.062;8.950;2023-04-15T11:28:08;95163.63;;;15.73;31.48
52441;BME280;39611;46.062;8.950;2023-04-15T11:30:36;95165.16;;;15.74;31.71
52441;BME280;39611;46.062;8.950;2023-04-15T11:33:05;95168.13;;;15.85;33.10
52441;BME280;39611;46.062;8.950;2023-04-15T11:35:32;95162.66;;;15.93;32.32
52441;BME280;39611;46.062;8.950;2023-04-15T11:38:05;95173.34;;;15.93;33.66
52441;BME280;39611;46.062;8.950;2023-04-15T11:40:34;95162.00;;;15.97;33.15
52441;BME280;39611;46.062;8.950;2023-04-15T11:45:37;95163.28;;;16.03;31.60
52441;BME280;39611;46.062;8.950;2023-04-15T11:48:13;95170.63;;;16.06;32.59
52441;BME280;39611;46.062;8.950;2023-04-15T11:50:40;95165.63;;;16.04;32.43
52441;BME280;39611;46.062;8.950;2023-04-15T11:53:11;95169.50;;;16.07;32.86
52441;BME280;39611;46.062;8.950;2023-04-15T11:58:18;95167.75;;;15.99;30.97
52441;BME280;39611;46.062;8.950;2023-04-15T12:00:46;95163.28;;;16.03;31.31
52441;BME280;39611;46.062;8.950;2023-04-15T12:08:56;95165.72;;;16.08;33.08
52441;BME280;39611;46.062;8.950;2023-04-15T12:16:45;95173.69;;;16.20;35.59
52441;BME280;39611;46.062;8.950;2023-04-15T12:19:19;95173.22;;;16.18;34.09
52441;BME280;39611;46.062;8.950;2023-04-15T12:21:48;95176.97;;;16.29;35.24
52441;BME280;39611;46.062;8.950;2023-04-15T12:24:14;95179.66;;;16.29;34.89
52441;BME280;39611;46.062;8.950;2023-04-15T12:26:47;95180.75;;;16.28;33.95
52441;BME280;39611;46.062;8.950;2023-04-15T12:29:15;95178.44;;;16.27;35.11
52441;BME280;39611;46.062;8.950;2023-04-15T12:31:51;95176.78;;;16.22;33.20
52441;BME280;39611;46.062;8.950;2023-04-15T12:34:26;95181.69;;;16.20;34.52
52441;BME280;39611;46.062;8.950;2023-04-15T12:36:53;95183.66;;;16.23;33.55
52441;BME280;39611;46.062;8.950;2023-04-15T12:39:24;95193.38;;;16.15;33.51
52441;BME280;39611;46.062;8.950;2023-04-15T12:41:51;95195.06;;;16.08;33.37
52441;BME280;39611;46.062;8.950;2023-04-15T12:44:18;95194.03;;;16.12;34.03
52441;BME280;39611;46.062;8.950;2023-04-15T12:46:45;95198.81;;;16.19;35.51
52441;BME280;39611;46.062;8.950;2023-04-15T12:49:12;95210.25;;;16.20;35.44
52441;BME280;39611;46.062;8.950;2023-04-15T12:51:40;95212.38;;;16.14;34.11
52441;BME280;39611;46.062;8.950;2023-04-15T12:54:06;95209.09;;;15.92;32.66
52441;BME280;39611;46.062;8.950;2023-04-15T12:56:33;95213.13;;;15.86;32.91
52441;BME280;39611;46.062;8.950;2023-04-15T12:58:59;95214.03;;;15.78;34.42
52441;BME280;39611;46.062;8.950;2023-04-15T13:01:26;95224.16;;;15.72;33.58
52441;BME280;39611;46.062;8.950;2023-04-15T13:03:52;95234.69;;;15.57;34.07
52441;BME280;39611;46.062;8.950;2023-04-15T13:06:19;95237.13;;;15.37;33.96
52441;BME280;39611;46.062;8.950;2023-04-15T13:08:45;95236.00;;;15.38;34.29
52441;BME280;39611;46.062;8.950;2023-04-15T13:11:23;95242.69;;;15.32;34.06
52441;BME280;39611;46.062;8.950;2023-04-15T13:13:50;95258.88;;;15.27;33.81
52441;BME280;39611;46.062;8.950;2023-04-15T13:16:18;95263.44;;;15.14;34.89
52441;BME280;39611;46.062;8.950;2023-04-15T13:18:44;95275.16;;;15.01;34.86
52441;BME280;39611;46.062;8.950;2023-04-15T13:21:11;95284.13;;;14.84;36.16
52441;BME280;39611;46.062;8.950;2023-04-15T13:23:38;95292.31;;;14.79;37.95
52441;BME280;39611;46.062;8.950;2023-04-15T13:26:04;95305.78;;;14.61;41.30
52441;BME280;39611;46.062;8.950;2023-04-15T13:28:31;95300.56;;;14.44;41.10
52441;BME280;39611;46.062;8.950;2023-04-15T13:30:57;95299.41;;;14.33;41.28